createdAt,value
2024-02-15T00:08:35.804Z,100768.25
2024-02-15T00:13:37.855Z,100769.91
2024-02-15T00:18:40.793Z,100769.72
2024-02-15T00:23:43.784Z,100767.19
2024-02-15T00:28:45.644Z,100766.41
2024-02-15T00:33:47.869Z,100763.50
2024-02-15T00:38:50.258Z,100772.19
2024-02-15T00:43:52.131Z,100761.69
2024-02-15T00:48:54.080Z,100766.09
2024-02-15T00:53:55.968Z,100773.69
2024-02-15T00:58:58.131Z,100761.88
2024-02-15T01:03:59.928Z,100763.56
2024-02-15T01:09:03.405Z,100759.06
2024-02-15T01:14:05.317Z,100759.63
2024-02-15T01:19:07.196Z,100752.59
2024-02-15T01:24:09.007Z,100762.78
2024-02-15T01:29:13.420Z,100753.53
2024-02-15T01:34:15.405Z,100761.97
2024-02-15T01:39:17.668Z,100771.69
2024-02-15T01:44:22.787Z,100765.03
2024-02-15T01:49:25.895Z,100757.50
2024-02-15T01:54:28.679Z,100762.75
2024-02-15T01:59:31.823Z,100755.25
2024-02-15T02:04:33.624Z,100747.69
2024-02-15T02:09:35.685Z,100744.34
2024-02-15T02:14:37.470Z,100746.44
2024-02-15T02:19:39.866Z,100739.94
2024-02-15T02:24:56.616Z,100738.28
2024-02-15T02:30:00.669Z,100730.78
2024-02-15T02:35:03.237Z,100732.03
2024-02-15T02:40:09.751Z,100728.47
2024-02-15T02:45:11.587Z,100721.31
2024-02-15T02:50:13.844Z,100732.47
2024-02-15T02:55:57.306Z,100726.56
2024-02-15T03:01:01.695Z,100729.94
2024-02-15T03:06:04.029Z,100734.13
2024-02-15T03:11:05.860Z,100729.75
2024-02-15T03:16:07.544Z,100733.91
2024-02-15T03:21:12.013Z,100738.16
2024-02-15T03:26:14.068Z,100743.19
2024-02-15T03:31:16.129Z,100747.81
2024-02-15T03:36:21.219Z,100739.63
2024-02-15T03:41:23.686Z,100738.13
2024-02-15T03:46:25.455Z,100737.28
2024-02-15T03:51:27.238Z,100738.97
2024-02-15T03:56:29.384Z,100744.84
2024-02-15T04:01:35.228Z,100734.78
2024-02-15T04:06:37.626Z,100733.91
2024-02-15T04:11:39.765Z,100732.47
2024-02-15T04:16:41.740Z,100735.81
2024-02-15T04:21:45.187Z,100728.22
2024-02-15T04:26:49.497Z,100736.03
2024-02-15T04:31:51.479Z,100727.81
2024-02-15T04:36:56.868Z,100725.94
2024-02-15T04:41:58.729Z,100730.34
2024-02-15T04:47:00.539Z,100731.19
2024-02-15T04:52:05.308Z,100720.44
2024-02-15T04:57:09.938Z,100728.00
2024-02-15T05:02:12.628Z,100720.22
2024-02-15T05:07:18.094Z,100724.41
2024-02-15T05:12:25.493Z,100723.78
2024-02-15T05:17:31.085Z,100718.31
2024-02-15T05:22:34.012Z,100711.16
2024-02-15T05:27:37.195Z,100708.03
2024-02-15T05:32:43.081Z,100707.41
2024-02-15T05:37:45.260Z,100709.72
2024-02-15T05:42:47.512Z,100715.84
2024-02-15T05:47:49.418Z,100712.44
2024-02-15T05:52:54.271Z,100713.50
2024-02-15T05:57:56.119Z,100706.13
2024-02-15T06:02:58.042Z,100700.25
2024-02-15T06:08:00.108Z,100692.88
2024-02-15T06:13:02.081Z,100694.19
2024-02-15T06:18:10.568Z,100687.88
2024-02-15T06:23:12.680Z,100687.88
2024-02-15T06:28:20.946Z,100685.13
2024-02-15T06:33:41.192Z,100669.78
2024-02-15T06:39:01.578Z,100669.16
2024-02-15T06:44:05.603Z,100662.03
2024-02-15T06:49:07.672Z,100658.25
2024-02-15T06:54:09.530Z,100662.22
2024-02-15T06:59:11.679Z,100671.19
2024-02-15T07:04:13.547Z,100669.94
2024-02-15T07:09:22.786Z,100666.38
2024-02-15T07:14:24.662Z,100656.28
2024-02-15T07:19:28.894Z,100655.69
2024-02-15T07:24:31.137Z,100658.84
2024-02-15T07:29:33.766Z,100650.44
2024-02-15T07:34:35.696Z,100649.66
2024-02-15T07:39:37.804Z,100646.50
2024-02-15T07:44:39.694Z,100646.47
2024-02-15T07:49:43.076Z,100645.56
2024-02-15T07:54:45.174Z,100642.16
2024-02-15T07:59:49.447Z,100648.22
2024-02-15T08:04:51.729Z,100640.81
2024-02-15T08:09:56.065Z,100637.00
2024-02-15T08:14:59.390Z,100634.22
2024-02-15T08:20:01.352Z,100631.69
2024-02-15T08:25:06.086Z,100633.59
2024-02-15T08:30:10.475Z,100629.78
2024-02-15T08:35:14.267Z,100621.44
2024-02-15T08:40:16.716Z,100616.31
2024-02-15T08:45:18.581Z,100612.94
2024-02-15T08:50:22.486Z,100621.81
2024-02-15T08:55:28.410Z,100610.63
2024-02-15T09:00:30.296Z,100601.03
2024-02-15T09:05:32.129Z,100595.38
2024-02-15T09:10:34.053Z,100589.94
2024-02-15T09:15:36.732Z,100571.50
2024-02-15T09:20:41.476Z,100572.53
2024-02-15T09:25:46.095Z,100563.75
2024-02-15T09:30:48.554Z,100540.97
2024-02-15T09:35:50.427Z,100542.41
2024-02-15T09:40:52.692Z,100526.97
2024-02-15T09:45:54.426Z,100518.84
2024-02-15T09:50:57.660Z,100500.41
2024-02-15T09:56:05.549Z,100498.00
2024-02-15T10:01:11.456Z,100490.50
2024-02-15T10:06:13.808Z,100486.34
2024-02-15T10:11:17.290Z,100462.69
2024-02-15T10:16:20.659Z,100468.88
2024-02-15T10:21:34.819Z,100462.94
2024-02-15T10:26:37.638Z,100445.44
2024-02-15T10:31:42.898Z,100432.72
2024-02-15T10:36:45.020Z,100413.09
2024-02-15T10:41:52.619Z,100416.88
2024-02-15T10:46:54.817Z,100418.13
2024-02-15T10:52:05.341Z,100406.22
2024-02-15T10:57:07.712Z,100389.19
2024-02-15T11:02:31.197Z,100375.31
2024-02-15T11:07:33.854Z,100367.41
2024-02-15T11:12:36.783Z,100373.72
2024-02-15T11:17:51.869Z,100362.16
2024-02-15T11:23:01.032Z,100360.09
2024-02-15T11:28:41.996Z,100327.16
2024-02-15T11:33:44.614Z,100349.13
2024-02-15T11:38:46.478Z,100328.41
2024-02-15T11:43:51.354Z,100331.47
2024-02-15T11:48:57.994Z,100298.22
2024-02-15T11:54:07.576Z,100303.75
2024-02-15T11:59:09.443Z,100311.50
2024-02-15T12:04:29.913Z,100287.16
2024-02-15T12:09:50.575Z,100302.63
2024-02-15T12:15:19.233Z,100313.72
2024-02-15T12:20:26.619Z,100290.25
2024-02-15T12:25:28.769Z,100276.09
2024-02-15T12:30:37.901Z,100270.28
2024-02-15T12:35:40.516Z,100268.91
2024-02-15T12:40:44.586Z,100269.00
2024-02-15T12:45:48.387Z,100254.03
2024-02-15T12:50:50.467Z,100234.31
2024-02-15T12:55:56.422Z,100231.78
2024-02-15T13:01:00.129Z,100217.91
2024-02-15T13:06:02.226Z,100205.22
2024-02-15T13:11:04.791Z,100204.41
2024-02-15T13:16:07.481Z,100204.38
2024-02-15T13:21:11.665Z,100193.31
2024-02-15T13:26:15.764Z,100178.09
2024-02-15T13:31:17.649Z,100166.78
2024-02-15T13:36:21.221Z,100172.31
2024-02-15T13:41:23.117Z,100168.13
2024-02-15T13:46:25.706Z,100148.44
2024-02-15T13:51:27.546Z,100150.09
2024-02-15T13:56:29.343Z,100140.69
2024-02-15T14:01:31.102Z,100139.59
2024-02-15T14:06:33.145Z,100129.09
2024-02-15T14:11:35.094Z,100118.09
2024-02-15T14:16:36.873Z,100125.28
2024-02-15T14:21:39.868Z,100130.81
2024-02-15T14:26:41.997Z,100127.22
2024-02-15T14:32:02.057Z,100109.78
2024-02-15T14:37:07.123Z,100122.81
2024-02-15T14:47:13.645Z,100107.88
2024-02-15T14:52:16.074Z,100114.78
2024-02-15T14:57:20.715Z,100107.03
2024-02-15T15:02:23.431Z,100099.81
2024-02-15T15:07:43.496Z,100098.41
2024-02-15T15:12:46.843Z,100098.41
2024-02-15T15:17:48.683Z,100097.28
2024-02-15T15:22:50.804Z,100083.75
2024-02-15T15:27:52.986Z,100087.31
2024-02-15T15:32:54.985Z,100095.28
2024-02-15T15:38:00.290Z,100090.84
2024-02-15T15:43:03.774Z,100092.19
2024-02-15T15:48:07.299Z,100089.94
2024-02-15T15:53:11.175Z,100094.34
2024-02-15T15:58:13.125Z,100085.47
2024-02-15T16:03:15.533Z,100078.22
2024-02-15T16:08:17.259Z,100074.84
2024-02-15T16:13:21.314Z,100067.03
2024-02-15T16:18:24.650Z,100055.94
2024-02-15T16:23:27.059Z,100052.06
2024-02-15T16:28:28.828Z,100038.16
2024-02-15T16:33:30.745Z,100052.38
2024-02-15T16:38:34.224Z,100045.97
2024-02-15T16:43:36.841Z,100055.00
2024-02-15T16:48:38.718Z,100050.81
2024-02-15T16:53:40.814Z,100053.78
2024-02-15T16:58:42.681Z,100062.28
2024-02-15T17:03:44.688Z,100076.84
2024-02-15T17:08:47.375Z,100072.91
2024-02-15T17:13:50.115Z,100081.63
2024-02-15T17:18:52.376Z,100078.91
2024-02-15T17:23:54.548Z,100092.47
2024-02-15T17:28:58.351Z,100091.91
2024-02-15T17:34:00.274Z,100095.31
2024-02-15T17:39:02.533Z,100100.84
2024-02-15T17:44:05.016Z,100102.34
2024-02-15T17:49:06.946Z,100098.28
2024-02-15T17:54:09.079Z,100105.91
2024-02-15T17:59:12.261Z,100102.72
2024-02-15T18:04:14.149Z,100105.56
2024-02-15T18:09:15.921Z,100118.81
2024-02-15T18:14:17.891Z,100127.06
2024-02-15T18:19:21.039Z,100121.22
2024-02-15T18:24:23.078Z,100128.31
2024-02-15T18:29:28.036Z,100130.38
2024-02-15T18:34:29.985Z,100124.47
2024-02-15T18:39:32.549Z,100114.47
2024-02-15T18:44:34.452Z,100114.88
2024-02-15T18:49:41.158Z,100117.31
2024-02-15T18:54:45.797Z,100107.19
2024-02-15T18:59:47.633Z,100103.28
2024-02-15T19:04:50.417Z,100096.09
2024-02-15T19:09:52.255Z,100089.44
2024-02-15T19:14:54.615Z,100084.94
2024-02-15T19:19:56.435Z,100072.56
2024-02-15T19:24:58.274Z,100067.13
2024-02-15T19:30:00.637Z,100072.41
2024-02-15T19:35:02.785Z,100078.63
2024-02-15T19:40:08.949Z,100078.41
2024-02-15T19:45:10.971Z,100083.69
2024-02-15T19:50:16.300Z,100082.75
2024-02-15T19:55:18.238Z,100097.19
2024-02-15T20:00:20.637Z,100104.56
2024-02-15T20:05:25.136Z,100091.84
2024-02-15T20:10:26.994Z,100097.41
2024-02-15T20:15:30.682Z,100097.53
2024-02-15T20:20:34.162Z,100115.25
2024-02-15T20:25:36.077Z,100125.38
2024-02-15T20:30:39.272Z,100131.47
2024-02-15T20:35:44.421Z,100138.25
2024-02-15T20:40:46.189Z,100135.16
2024-02-15T20:45:48.203Z,100140.47
2024-02-15T20:50:51.815Z,100128.63
2024-02-15T20:55:53.652Z,100127.56
2024-02-15T21:00:56.188Z,100123.78
2024-02-15T21:05:58.095Z,100123.00
2024-02-15T21:11:01.173Z,100112.91
2024-02-15T21:16:05.464Z,100103.44
2024-02-15T21:21:10.393Z,100098.75
2024-02-15T21:26:12.542Z,100091.22
2024-02-15T21:31:17.157Z,100084.91
2024-02-15T21:36:19.940Z,100085.38
2024-02-15T21:41:22.387Z,100079.06
2024-02-15T21:46:24.269Z,100079.28
2024-02-15T21:51:26.288Z,100080.50
2024-02-15T21:56:28.461Z,100071.47
2024-02-15T22:01:32.549Z,100066.97
2024-02-15T22:06:34.818Z,100069.09
2024-02-15T22:11:36.730Z,100076.53
2024-02-15T22:16:38.752Z,100084.19
2024-02-15T22:21:40.565Z,100080.16
2024-02-15T22:26:42.424Z,100085.19
2024-02-15T22:31:45.495Z,100086.41
2024-02-15T22:36:47.392Z,100097.72
2024-02-15T22:41:51.065Z,100098.09
2024-02-15T22:46:55.939Z,100103.03
2024-02-15T22:51:58.159Z,100101.31
2024-02-15T22:57:00.031Z,100111.56
2024-02-15T23:02:01.835Z,100104.44
2024-02-15T23:07:05.477Z,100096.44
2024-02-15T23:12:07.686Z,100099.56
2024-02-15T23:17:11.943Z,100100.09
2024-02-15T23:22:14.854Z,100101.78
2024-02-15T23:27:17.069Z,100099.44
2024-02-15T23:32:18.934Z,100103.13
2024-02-15T23:37:39.252Z,100098.06
2024-02-15T23:42:41.037Z,100106.19
2024-02-15T23:47:43.082Z,100106.56
2024-02-15T23:52:46.732Z,100100.25
2024-02-15T23:57:48.584Z,100106.56
